sensor_id;sensor_type;location;lat;lon;timestamp;temperature;humidity
64817;DHT22;53289;45.602;11.904;2022-12-18T00:00:41;4.40;75.70
64817;DHT22;53289;45.602;11.904;2022-12-18T00:03:07;4.40;76.00
64817;DHT22;53289;45.602;11.904;2022-12-18T00:05:33;4.40;75.90
64817;DHT22;53289;45.602;11.904;2022-12-18T00:07:59;4.30;75.70
64817;DHT22;53289;45.602;11.904;2022-12-18T00:10:26;4.30;75.70
64817;DHT22;53289;45.602;11.904;2022-12-18T00:12:52;4.20;75.80
64817;DHT22;53289;45.602;11.904;2022-12-18T00:15:19;4.20;76.20
64817;DHT22;53289;45.602;11.904;2022-12-18T00:17:44;4.20;75.80
64817;DHT22;53289;45.602;11.904;2022-12-18T00:20:10;4.20;76.00
64817;DHT22;53289;45.602;11.904;2022-12-18T00:22:36;4.20;76.10
64817;DHT22;53289;45.602;11.904;2022-12-18T00:25:03;4.10;76.00
64817;DHT22;53289;45.602;11.904;2022-12-18T00:27:29;4.10;75.80
64817;DHT22;53289;45.602;11.904;2022-12-18T00:29:54;4.10;75.90
64817;DHT22;53289;45.602;11.904;2022-12-18T00:32:20;4.10;76.10
64817;DHT22;53289;45.602;11.904;2022-12-18T00:34:47;4.10;76.30
64817;DHT22;53289;45.602;11.904;2022-12-18T00:37:12;4.10;76.10
64817;DHT22;53289;45.602;11.904;2022-12-18T00:39:38;4.00;76.10
64817;DHT22;53289;45.602;11.904;2022-12-18T00:42:04;4.00;76.00
64817;DHT22;53289;45.602;11.904;2022-12-18T00:44:49;4.00;75.80
64817;DHT22;53289;45.602;11.904;2022-12-18T00:47:15;4.00;75.70
64817;DHT22;53289;45.602;11.904;2022-12-18T00:49:41;4.00;75.90
64817;DHT22;53289;45.602;11.904;2022-12-18T00:52:07;3.90;75.80
64817;DHT22;53289;45.602;11.904;2022-12-18T00:54:33;3.90;75.70
64817;DHT22;53289;45.602;11.904;2022-12-18T00:56:59;3.90;75.80
64817;DHT22;53289;45.602;11.904;2022-12-18T00:59:25;3.80;75.90
64817;DHT22;53289;45.602;11.904;2022-12-18T01:01:51;3.80;76.10
64817;DHT22;53289;45.602;11.904;2022-12-18T01:04:17;3.70;76.00
64817;DHT22;53289;45.602;11.904;2022-12-18T01:06:43;3.70;76.10
64817;DHT22;53289;45.602;11.904;2022-12-18T01:09:09;3.60;76.20
64817;DHT22;53289;45.602;11.904;2022-12-18T01:11:35;3.60;76.30
64817;DHT22;53289;45.602;11.904;2022-12-18T01:14:01;3.50;76.50
64817;DHT22;53289;45.602;11.904;2022-12-18T01:16:27;3.60;76.40
64817;DHT22;53289;45.602;11.904;2022-12-18T01:18:54;3.60;76.50
64817;DHT22;53289;45.602;11.904;2022-12-18T01:21:20;3.60;76.30
64817;DHT22;53289;45.602;11.904;2022-12-18T01:23:51;3.60;76.30
64817;DHT22;53289;45.602;11.904;2022-12-18T01:26:17;3.50;75.80
64817;DHT22;53289;45.602;11.904;2022-12-18T01:28:43;3.40;75.80
64817;DHT22;53289;45.602;11.904;2022-12-18T01:31:23;3.50;76.00
64817;DHT22;53289;45.602;11.904;2022-12-18T01:33:51;3.40;76.20
64817;DHT22;53289;45.602;11.904;2022-12-18T01:36:19;3.30;76.40
64817;DHT22;53289;45.602;11.904;2022-12-18T01:38:46;3.30;76.40
64817;DHT22;53289;45.602;11.904;2022-12-18T01:41:15;3.20;76.50
64817;DHT22;53289;45.602;11.904;2022-12-18T01:46:12;3.10;76.60
64817;DHT22;53289;45.602;11.904;2022-12-18T01:48:39;3.10;76.80
64817;DHT22;53289;45.602;11.904;2022-12-18T01:51:07;3.10;76.80
64817;DHT22;53289;45.602;11.904;2022-12-18T01:53:33;3.00;76.80
64817;DHT22;53289;45.602;11.904;2022-12-18T01:55:59;3.10;76.90
64817;DHT22;53289;45.602;11.904;2022-12-18T01:58:58;3.00;76.90
64817;DHT22;53289;45.602;11.904;2022-12-18T02:01:23;2.90;77.10
64817;DHT22;53289;45.602;11.904;2022-12-18T02:03:49;2.90;77.00
64817;DHT22;53289;45.602;11.904;2022-12-18T02:06:37;2.90;77.10
64817;DHT22;53289;45.602;11.904;2022-12-18T02:09:25;2.90;77.20
64817;DHT22;53289;45.602;11.904;2022-12-18T02:12:10;2.80;77.20
64817;DHT22;53289;45.602;11.904;2022-12-18T02:14:51;2.80;77.30
64817;DHT22;53289;45.602;11.904;2022-12-18T02:27:45;2.70;77.30
64817;DHT22;53289;45.602;11.904;2022-12-18T02:30:12;2.70;77.30
64817;DHT22;53289;45.602;11.904;2022-12-18T02:32:45;2.70;77.30
64817;DHT22;53289;45.602;11.904;2022-12-18T02:35:16;2.60;77.20
64817;DHT22;53289;45.602;11.904;2022-12-18T02:37:45;2.60;77.30
64817;DHT22;53289;45.602;11.904;2022-12-18T02:40:12;2.60;77.50
64817;DHT22;53289;45.602;11.904;2022-12-18T02:42:39;2.50;77.60
64817;DHT22;53289;45.602;11.904;2022-12-18T02:45:05;2.50;77.70
64817;DHT22;53289;45.602;11.904;2022-12-18T02:47:35;2.50;77.70
64817;DHT22;53289;45.602;11.904;2022-12-18T02:52:58;2.50;77.60
64817;DHT22;53289;45.602;11.904;2022-12-18T02:56:13;2.60;77.60
64817;DHT22;53289;45.602;11.904;2022-12-18T02:59:41;2.60;77.60
64817;DHT22;53289;45.602;11.904;2022-12-18T03:04:26;2.60;77.50
64817;DHT22;53289;45.602;11.904;2022-12-18T03:06:56;2.60;77.40
64817;DHT22;53289;45.602;11.904;2022-12-18T03:09:35;2.60;77.40
64817;DHT22;53289;45.602;11.904;2022-12-18T03:15:10;2.60;77.30
64817;DHT22;53289;45.602;11.904;2022-12-18T03:17:41;2.60;77.30
64817;DHT22;53289;45.602;11.904;2022-12-18T03:20:18;2.60;77.30
64817;DHT22;53289;45.602;11.904;2022-12-18T03:22:50;2.60;77.30
64817;DHT22;53289;45.602;11.904;2022-12-18T03:25:17;2.60;77.30
64817;DHT22;53289;45.602;11.904;2022-12-18T03:27:49;2.60;77.30
64817;DHT22;53289;45.602;11.904;2022-12-18T03:30:17;2.60;77.30
64817;DHT22;53289;45.602;11.904;2022-12-18T03:33:05;2.50;77.20
64817;DHT22;53289;45.602;11.904;2022-12-18T03:35:36;2.50;77.30
64817;DHT22;53289;45.602;11.904;2022-12-18T03:38:03;2.50;77.10
64817;DHT22;53289;45.602;11.904;2022-12-18T03:46:27;2.50;77.20
64817;DHT22;53289;45.602;11.904;2022-12-18T03:49:13;2.40;77.20
64817;DHT22;53289;45.602;11.904;2022-12-18T03:52:10;2.40;77.10
64817;DHT22;53289;45.602;11.904;2022-12-18T03:54:39;2.40;77.20
64817;DHT22;53289;45.602;11.904;2022-12-18T03:57:21;2.40;77.10
64817;DHT22;53289;45.602;11.904;2022-12-18T03:59:51;2.30;77.30
64817;DHT22;53289;45.602;11.904;2022-12-18T04:02:22;2.30;77.20
64817;DHT22;53289;45.602;11.904;2022-12-18T04:04:55;2.40;77.40
64817;DHT22;53289;45.602;11.904;2022-12-18T04:07:23;2.30;77.30
64817;DHT22;53289;45.602;11.904;2022-12-18T04:09:50;2.30;77.30
64817;DHT22;53289;45.602;11.904;2022-12-18T04:12:18;2.30;77.30
64817;DHT22;53289;45.602;11.904;2022-12-18T04:14:44;2.20;77.20
64817;DHT22;53289;45.602;11.904;2022-12-18T04:17:10;2.20;77.20
64817;DHT22;53289;45.602;11.904;2022-12-18T04:19:36;2.20;77.30
64817;DHT22;53289;45.602;11.904;2022-12-18T04:22:02;2.10;77.40
64817;DHT22;53289;45.602;11.904;2022-12-18T04:24:28;2.10;77.50
64817;DHT22;53289;45.602;11.904;2022-12-18T04:26:54;2.00;77.50
64817;DHT22;53289;45.602;11.904;2022-12-18T04:29:20;2.00;77.60
64817;DHT22;53289;45.602;11.904;2022-12-18T04:31:46;1.90;77.70
64817;DHT22;53289;45.602;11.904;2022-12-18T04:34:12;1.90;77.70
64817;DHT22;53289;45.602;11.904;2022-12-18T04:36:38;1.90;77.80
64817;DHT22;53289;45.602;11.904;2022-12-18T04:39:04;1.80;77.90
64817;DHT22;53289;45.602;11.904;2022-12-18T04:41:30;1.80;78.00
64817;DHT22;53289;45.602;11.904;2022-12-18T04:43:56;1.80;78.00
64817;DHT22;53289;45.602;11.904;2022-12-18T04:46:22;1.90;78.10
64817;DHT22;53289;45.602;11.904;2022-12-18T04:48:48;1.90;78.00
64817;DHT22;53289;45.602;11.904;2022-12-18T04:51:14;1.80;78.00
64817;DHT22;53289;45.602;11.904;2022-12-18T04:53:40;1.90;78.00
64817;DHT22;53289;45.602;11.904;2022-12-18T04:56:12;1.90;78.00
64817;DHT22;53289;45.602;11.904;2022-12-18T04:58:39;1.90;78.00
64817;DHT22;53289;45.602;11.904;2022-12-18T05:01:07;1.90;78.00
64817;DHT22;53289;45.602;11.904;2022-12-18T05:03:33;1.90;78.00
64817;DHT22;53289;45.602;11.904;2022-12-18T05:06:00;1.90;78.00
64817;DHT22;53289;45.602;11.904;2022-12-18T05:08:26;2.00;77.90
64817;DHT22;53289;45.602;11.904;2022-12-18T05:11:10;2.00;77.70
64817;DHT22;53289;45.602;11.904;2022-12-18T05:13:36;2.00;77.70
64817;DHT22;53289;45.602;11.904;2022-12-18T05:16:02;2.00;77.50
64817;DHT22;53289;45.602;11.904;2022-12-18T05:18:28;2.00;77.50
64817;DHT22;53289;45.602;11.904;2022-12-18T05:20:54;2.00;77.50
64817;DHT22;53289;45.602;11.904;2022-12-18T05:23:22;2.00;77.50
64817;DHT22;53289;45.602;11.904;2022-12-18T05:25:59;2.00;77.60
64817;DHT22;53289;45.602;11.904;2022-12-18T05:28:27;2.00;77.60
64817;DHT22;53289;45.602;11.904;2022-12-18T05:30:56;2.00;77.60
64817;DHT22;53289;45.602;11.904;2022-12-18T05:33:23;2.00;77.60
64817;DHT22;53289;45.602;11.904;2022-12-18T05:35:54;2.00;77.60
64817;DHT22;53289;45.602;11.904;2022-12-18T05:38:21;2.00;77.60
64817;DHT22;53289;45.602;11.904;2022-12-18T05:40:48;2.00;77.60
64817;DHT22;53289;45.602;11.904;2022-12-18T05:43:15;2.10;77.70
64817;DHT22;53289;45.602;11.904;2022-12-18T05:45:41;2.10;77.70
64817;DHT22;53289;45.602;11.904;2022-12-18T05:48:08;2.10;77.50
64817;DHT22;53289;45.602;11.904;2022-12-18T05:50:35;2.00;77.50
64817;DHT22;53289;45.602;11.904;2022-12-18T05:53:02;2.00;77.50
64817;DHT22;53289;45.602;11.904;2022-12-18T05:55:32;2.00;77.60
64817;DHT22;53289;45.602;11.904;2022-12-18T05:57:58;2.00;77.70
64817;DHT22;53289;45.602;11.904;2022-12-18T06:00:24;2.00;77.70
64817;DHT22;53289;45.602;11.904;2022-12-18T06:02:50;1.90;77.70
64817;DHT22;53289;45.602;11.904;2022-12-18T06:05:16;1.90;77.70
64817;DHT22;53289;45.602;11.904;2022-12-18T06:07:42;1.90;77.80
64817;DHT22;53289;45.602;11.904;2022-12-18T06:10:08;1.90;77.90
64817;DHT22;53289;45.602;11.904;2022-12-18T06:12:34;1.90;78.00
64817;DHT22;53289;45.602;11.904;2022-12-18T06:15:00;1.90;78.10
64817;DHT22;53289;45.602;11.904;2022-12-18T06:17:30;1.90;78.10
64817;DHT22;53289;45.602;11.904;2022-12-18T06:19:56;1.90;78.00
64817;DHT22;53289;45.602;11.904;2022-12-18T06:22:22;1.90;77.90
64817;DHT22;53289;45.602;11.904;2022-12-18T06:24:48;1.90;78.00
64817;DHT22;53289;45.602;11.904;2022-12-18T06:27:14;1.90;78.00
64817;DHT22;53289;45.602;11.904;2022-12-18T06:29:40;1.90;77.90
64817;DHT22;53289;45.602;11.904;2022-12-18T06:32:06;1.90;78.00
64817;DHT22;53289;45.602;11.904;2022-12-18T06:34:33;2.00;78.00
64817;DHT22;53289;45.602;11.904;2022-12-18T06:36:59;2.00;77.90
64817;DHT22;53289;45.602;11.904;2022-12-18T06:39:27;2.00;77.80
64817;DHT22;53289;45.602;11.904;2022-12-18T06:41:54;2.00;77.80
64817;DHT22;53289;45.602;11.904;2022-12-18T06:44:19;2.00;77.80
64817;DHT22;53289;45.602;11.904;2022-12-18T06:46:45;2.00;77.80
64817;DHT22;53289;45.602;11.904;2022-12-18T06:49:11;2.00;77.80
64817;DHT22;53289;45.602;11.904;2022-12-18T06:51:38;2.10;77.80
64817;DHT22;53289;45.602;11.904;2022-12-18T06:54:04;2.10;77.70
64817;DHT22;53289;45.602;11.904;2022-12-18T06:56:30;2.00;77.70
64817;DHT22;53289;45.602;11.904;2022-12-18T06:58:56;2.00;77.80
64817;DHT22;53289;45.602;11.904;2022-12-18T07:01:22;1.90;77.90
64817;DHT22;53289;45.602;11.904;2022-12-18T07:03:55;1.90;78.00
64817;DHT22;53289;45.602;11.904;2022-12-18T07:06:23;2.00;78.00
64817;DHT22;53289;45.602;11.904;2022-12-18T07:08:50;2.00;77.90
64817;DHT22;53289;45.602;11.904;2022-12-18T07:11:17;1.90;78.00
64817;DHT22;53289;45.602;11.904;2022-12-18T07:13:44;1.90;78.00
64817;DHT22;53289;45.602;11.904;2022-12-18T07:16:15;2.00;78.00
64817;DHT22;53289;45.602;11.904;2022-12-18T07:18:41;2.10;77.90
64817;DHT22;53289;45.602;11.904;2022-12-18T07:21:09;2.10;77.90
64817;DHT22;53289;45.602;11.904;2022-12-18T07:23:35;2.20;77.80
64817;DHT22;53289;45.602;11.904;2022-12-18T07:28:29;2.30;77.70
64817;DHT22;53289;45.602;11.904;2022-12-18T07:30:55;2.30;77.60
64817;DHT22;53289;45.602;11.904;2022-12-18T07:33:21;2.40;77.60
64817;DHT22;53289;45.602;11.904;2022-12-18T07:35:47;2.40;77.60
64817;DHT22;53289;45.602;11.904;2022-12-18T07:38:13;2.50;77.50
64817;DHT22;53289;45.602;11.904;2022-12-18T07:40:39;2.60;77.30
64817;DHT22;53289;45.602;11.904;2022-12-18T07:43:05;2.70;77.00
64817;DHT22;53289;45.602;11.904;2022-12-18T07:45:30;2.80;76.90
64817;DHT22;53289;45.602;11.904;2022-12-18T07:47:56;2.90;76.80
64817;DHT22;53289;45.602;11.904;2022-12-18T07:50:22;2.90;76.80
64817;DHT22;53289;45.602;11.904;2022-12-18T07:52:49;3.00;76.60
64817;DHT22;53289;45.602;11.904;2022-12-18T07:55:15;3.10;76.50
64817;DHT22;53289;45.602;11.904;2022-12-18T07:57:41;3.10;76.50
64817;DHT22;53289;45.602;11.904;2022-12-18T08:00:07;3.20;76.10
64817;DHT22;53289;45.602;11.904;2022-12-18T08:02:33;3.30;76.10
64817;DHT22;53289;45.602;11.904;2022-12-18T08:04:59;3.30;75.80
64817;DHT22;53289;45.602;11.904;2022-12-18T08:07:25;3.40;75.70
64817;DHT22;53289;45.602;11.904;2022-12-18T08:09:51;3.50;75.80
64817;DHT22;53289;45.602;11.904;2022-12-18T08:12:18;3.60;75.10
64817;DHT22;53289;45.602;11.904;2022-12-18T08:14:44;3.70;75.50
64817;DHT22;53289;45.602;11.904;2022-12-18T08:17:10;3.80;74.80
64817;DHT22;53289;45.602;11.904;2022-12-18T08:19:36;3.90;74.30
64817;DHT22;53289;45.602;11.904;2022-12-18T08:22:02;3.90;74.50
64817;DHT22;53289;45.602;11.904;2022-12-18T08:24:28;4.00;74.70
64817;DHT22;53289;45.602;11.904;2022-12-18T08:26:54;4.20;74.20
64817;DHT22;53289;45.602;11.904;2022-12-18T08:29:20;4.30;74.50
64817;DHT22;53289;45.602;11.904;2022-12-18T08:31:46;4.40;74.20
64817;DHT22;53289;45.602;11.904;2022-12-18T08:34:12;4.60;73.90
64817;DHT22;53289;45.602;11.904;2022-12-18T08:36:37;4.60;73.10
64817;DHT22;53289;45.602;11.904;2022-12-18T08:39:03;4.80;73.80
64817;DHT22;53289;45.602;11.904;2022-12-18T08:41:29;4.90;73.20
64817;DHT22;53289;45.602;11.904;2022-12-18T08:43:55;5.10;73.60
64817;DHT22;53289;45.602;11.904;2022-12-18T08:46:41;5.30;72.50
64817;DHT22;53289;45.602;11.904;2022-12-18T08:49:08;5.40;72.70
64817;DHT22;53289;45.602;11.904;2022-12-18T08:51:34;5.60;72.30
64817;DHT22;53289;45.602;11.904;2022-12-18T08:54:01;5.80;71.20
64817;DHT22;53289;45.602;11.904;2022-12-18T08:56:27;6.00;69.30
64817;DHT22;53289;45.602;11.904;2022-12-18T08:58:54;6.10;69.20
64817;DHT22;53289;45.602;11.904;2022-12-18T09:01:20;6.30;70.40
64817;DHT22;53289;45.602;11.904;2022-12-18T09:03:47;6.50;69.70
64817;DHT22;53289;45.602;11.904;2022-12-18T09:06:15;6.70;69.80
64817;DHT22;53289;45.602;11.904;2022-12-18T09:08:42;6.80;68.00
64817;DHT22;53289;45.602;11.904;2022-12-18T09:11:14;6.90;68.00
64817;DHT22;53289;45.602;11.904;2022-12-18T09:13:41;7.10;67.30
64817;DHT22;53289;45.602;11.904;2022-12-18T09:16:07;7.10;68.40
64817;DHT22;53289;45.602;11.904;2022-12-18T09:18:33;7.00;66.60
64817;DHT22;53289;45.602;11.904;2022-12-18T09:20:59;6.90;68.10
64817;DHT22;53289;45.602;11.904;2022-12-18T09:23:24;7.00;68.90
64817;DHT22;53289;45.602;11.904;2022-12-18T09:25:50;7.10;68.30
64817;DHT22;53289;45.602;11.904;2022-12-18T09:28:18;7.30;67.60
64817;DHT22;53289;45.602;11.904;2022-12-18T09:30:48;7.40;67.50
64817;DHT22;53289;45.602;11.904;2022-12-18T09:33:15;7.60;69.30
64817;DHT22;53289;45.602;11.904;2022-12-18T09:35:42;7.80;64.70
64817;DHT22;53289;45.602;11.904;2022-12-18T09:38:12;7.90;68.20
64817;DHT22;53289;45.602;11.904;2022-12-18T09:41:05;8.10;68.30
64817;DHT22;53289;45.602;11.904;2022-12-18T09:43:51;8.30;62.70
64817;DHT22;53289;45.602;11.904;2022-12-18T09:46:33;8.40;66.30
64817;DHT22;53289;45.602;11.904;2022-12-18T09:49:03;8.50;60.80
64817;DHT22;53289;45.602;11.904;2022-12-18T09:54:19;8.60;59.00
64817;DHT22;53289;45.602;11.904;2022-12-18T09:56:45;8.50;59.90
64817;DHT22;53289;45.602;11.904;2022-12-18T09:59:24;8.40;60.30
64817;DHT22;53289;45.602;11.904;2022-12-18T10:01:51;8.40;59.40
64817;DHT22;53289;45.602;11.904;2022-12-18T10:04:17;8.50;60.10
64817;DHT22;53289;45.602;11.904;2022-12-18T10:07:03;8.60;61.40
64817;DHT22;53289;45.602;11.904;2022-12-18T10:15:13;8.70;59.10
64817;DHT22;53289;45.602;11.904;2022-12-18T10:17:55;8.70;58.20
64817;DHT22;53289;45.602;11.904;2022-12-18T10:20:45;8.90;60.50
64817;DHT22;53289;45.602;11.904;2022-12-18T10:26:11;9.40;60.60
64817;DHT22;53289;45.602;11.904;2022-12-18T10:28:41;9.60;60.10
64817;DHT22;53289;45.602;11.904;2022-12-18T10:31:18;9.70;59.40
64817;DHT22;53289;45.602;11.904;2022-12-18T10:33:44;9.60;56.70
64817;DHT22;53289;45.602;11.904;2022-12-18T10:36:10;9.40;56.40
64817;DHT22;53289;45.602;11.904;2022-12-18T10:38:36;9.10;58.70
64817;DHT22;53289;45.602;11.904;2022-12-18T10:41:04;8.90;55.70
64817;DHT22;53289;45.602;11.904;2022-12-18T10:43:37;8.70;59.30
64817;DHT22;53289;45.602;11.904;2022-12-18T10:51:06;8.60;61.20
64817;DHT22;53289;45.602;11.904;2022-12-18T10:53:34;8.80;61.20
64817;DHT22;53289;45.602;11.904;2022-12-18T10:56:04;9.10;59.00
64817;DHT22;53289;45.602;11.904;2022-12-18T10:58:36;9.30;58.40
64817;DHT22;53289;45.602;11.904;2022-12-18T11:01:04;9.40;59.30
64817;DHT22;53289;45.602;11.904;2022-12-18T11:06:18;9.20;58.00
64817;DHT22;53289;45.602;11.904;2022-12-18T11:09:02;9.20;59.30
64817;DHT22;53289;45.602;11.904;2022-12-18T11:11:29;9.20;59.10
64817;DHT22;53289;45.602;11.904;2022-12-18T11:16:30;9.50;56.80
64817;DHT22;53289;45.602;11.904;2022-12-18T11:19:13;9.60;59.00
64817;DHT22;53289;45.602;11.904;2022-12-18T11:21:41;9.80;57.20
64817;DHT22;53289;45.602;11.904;2022-12-18T11:24:20;9.90;57.10
64817;DHT22;53289;45.602;11.904;2022-12-18T11:26:46;9.90;57.70
64817;DHT22;53289;45.602;11.904;2022-12-18T11:29:18;10.00;55.60
64817;DHT22;53289;45.602;11.904;2022-12-18T11:31:48;10.20;56.80
64817;DHT22;53289;45.602;11.904;2022-12-18T11:34:32;10.50;55.10
64817;DHT22;53289;45.602;11.904;2022-12-18T11:36:58;10.80;54.00
64817;DHT22;53289;45.602;11.904;2022-12-18T11:47:29;11.70;55.50
64817;DHT22;53289;45.602;11.904;2022-12-18T11:50:00;12.00;54.00
64817;DHT22;53289;45.602;11.904;2022-12-18T11:52:35;12.20;52.70
64817;DHT22;53289;45.602;11.904;2022-12-18T12:00:26;12.50;54.30
64817;DHT22;53289;45.602;11.904;2022-12-18T12:14:33;12.30;54.80
64817;DHT22;53289;45.602;11.904;2022-12-18T12:25:02;12.90;53.90
64817;DHT22;53289;45.602;11.904;2022-12-18T12:30:39;13.10;52.20
64817;DHT22;53289;45.602;11.904;2022-12-18T12:38:57;13.70;52.70
64817;DHT22;53289;45.602;11.904;2022-12-18T12:41:30;13.90;51.50
64817;DHT22;53289;45.602;11.904;2022-12-18T12:44:21;13.90;52.40
64817;DHT22;53289;45.602;11.904;2022-12-18T12:46:50;13.90;52.40
64817;DHT22;53289;45.602;11.904;2022-12-18T12:49:25;13.90;49.40
64817;DHT22;53289;45.602;11.904;2022-12-18T12:52:22;14.00;50.40
64817;DHT22;53289;45.602;11.904;2022-12-18T12:54:52;14.20;49.00
64817;DHT22;53289;45.602;11.904;2022-12-18T12:57:34;14.30;51.20
64817;DHT22;53289;45.602;11.904;2022-12-18T13:00:15;14.40;49.00
64817;DHT22;53289;45.602;11.904;2022-12-18T13:05:25;14.50;50.70
64817;DHT22;53289;45.602;11.904;2022-12-18T13:08:02;14.70;50.30
64817;DHT22;53289;45.602;11.904;2022-12-18T13:10:40;14.80;49.90
64817;DHT22;53289;45.602;11.904;2022-12-18T13:13:10;14.70;47.50
64817;DHT22;53289;45.602;11.904;2022-12-18T13:15:46;14.70;49.60
64817;DHT22;53289;45.602;11.904;2022-12-18T13:18:20;14.80;50.40
64817;DHT22;53289;45.602;11.904;2022-12-18T13:31:07;14.20;51.80
64817;DHT22;53289;45.602;11.904;2022-12-18T13:33:44;14.30;51.30
64817;DHT22;53289;45.602;11.904;2022-12-18T13:41:43;14.70;46.40
64817;DHT22;53289;45.602;11.904;2022-12-18T13:46:52;14.80;50.00
64817;DHT22;53289;45.602;11.904;2022-12-18T13:51:50;14.80;50.20
64817;DHT22;53289;45.602;11.904;2022-12-18T13:54:34;14.80;49.90
64817;DHT22;53289;45.602;11.904;2022-12-18T13:57:02;14.80;49.30
64817;DHT22;53289;45.602;11.904;2022-12-18T13:59:38;14.70;50.50
64817;DHT22;53289;45.602;11.904;2022-12-18T14:02:16;14.70;50.20
64817;DHT22;53289;45.602;11.904;2022-12-18T14:04:45;14.60;49.80
64817;DHT22;53289;45.602;11.904;2022-12-18T14:07:17;14.50;50.10
64817;DHT22;53289;45.602;11.904;2022-12-18T14:09:46;14.50;49.70
64817;DHT22;53289;45.602;11.904;2022-12-18T14:12:22;14.50;49.80
64817;DHT22;53289;45.602;11.904;2022-12-18T14:15:32;14.40;49.40
64817;DHT22;53289;45.602;11.904;2022-12-18T14:18:19;14.30;49.30
64817;DHT22;53289;45.602;11.904;2022-12-18T14:20:49;14.20;50.20
64817;DHT22;53289;45.602;11.904;2022-12-18T14:23:48;14.10;49.40
64817;DHT22;53289;45.602;11.904;2022-12-18T14:26:28;14.00;49.40
64817;DHT22;53289;45.602;11.904;2022-12-18T14:29:11;13.90;50.80
64817;DHT22;53289;45.602;11.904;2022-12-18T14:31:44;13.80;51.10
64817;DHT22;53289;45.602;11.904;2022-12-18T14:34:18;13.70;51.40
64817;DHT22;53289;45.602;11.904;2022-12-18T14:36:53;13.70;51.10
64817;DHT22;53289;45.602;11.904;2022-12-18T14:39:21;13.80;51.20
64817;DHT22;53289;45.602;11.904;2022-12-18T14:41:51;13.70;51.20
64817;DHT22;53289;45.602;11.904;2022-12-18T14:44:17;13.50;51.30
64817;DHT22;53289;45.602;11.904;2022-12-18T14:46:44;13.30;51.70
64817;DHT22;53289;45.602;11.904;2022-12-18T14:49:27;13.00;52.00
64817;DHT22;53289;45.602;11.904;2022-12-18T14:51:56;12.70;52.40
64817;DHT22;53289;45.602;11.904;2022-12-18T14:54:26;12.40;53.00
64817;DHT22;53289;45.602;11.904;2022-12-18T14:57:25;12.10;53.20
64817;DHT22;53289;45.602;11.904;2022-12-18T15:00:05;11.90;53.90
64817;DHT22;53289;45.602;11.904;2022-12-18T15:02:31;11.60;54.40
64817;DHT22;53289;45.602;11.904;2022-12-18T15:05:03;11.30;54.70
64817;DHT22;53289;45.602;11.904;2022-12-18T15:07:47;11.10;55.40
64817;DHT22;53289;45.602;11.904;2022-12-18T15:10:22;10.70;55.80
64817;DHT22;53289;45.602;11.904;2022-12-18T15:13:08;10.40;56.20
64817;DHT22;53289;45.602;11.904;2022-12-18T15:18:04;9.90;57.50
64817;DHT22;53289;45.602;11.904;2022-12-18T15:20:40;9.70;58.60
64817;DHT22;53289;45.602;11.904;2022-12-18T15:23:21;9.40;58.90
64817;DHT22;53289;45.602;11.904;2022-12-18T15:26:08;9.30;59.60
64817;DHT22;53289;45.602;11.904;2022-12-18T15:28:47;9.00;60.10
64817;DHT22;53289;45.602;11.904;2022-12-18T15:36:16;8.40;61.90
64817;DHT22;53289;45.602;11.904;2022-12-18T15:38:54;8.30;61.90
64817;DHT22;53289;45.602;11.904;2022-12-18T15:41:21;8.10;62.40
64817;DHT22;53289;45.602;11.904;2022-12-18T15:43:49;7.90;62.80
64817;DHT22;53289;45.602;11.904;2022-12-18T15:46:23;7.70;63.00
64817;DHT22;53289;45.602;11.904;2022-12-18T15:48:52;7.50;63.30
64817;DHT22;53289;45.602;11.904;2022-12-18T15:51:23;7.40;63.90
64817;DHT22;53289;45.602;11.904;2022-12-18T15:53:51;7.20;64.30
64817;DHT22;53289;45.602;11.904;2022-12-18T15:56:19;7.10;64.60
64817;DHT22;53289;45.602;11.904;2022-12-18T15:59:24;6.90;65.10
64817;DHT22;53289;45.602;11.904;2022-12-18T16:01:51;6.80;65.70
64817;DHT22;53289;45.602;11.904;2022-12-18T16:04:19;6.70;65.80
64817;DHT22;53289;45.602;11.904;2022-12-18T16:06:46;6.60;66.10
64817;DHT22;53289;45.602;11.904;2022-12-18T16:09:12;6.40;66.30
64817;DHT22;53289;45.602;11.904;2022-12-18T16:11:42;6.30;66.60
64817;DHT22;53289;45.602;11.904;2022-12-18T16:16:48;6.10;67.10
64817;DHT22;53289;45.602;11.904;2022-12-18T16:19:14;6.00;67.40
64817;DHT22;53289;45.602;11.904;2022-12-18T16:21:40;5.90;67.50
64817;DHT22;53289;45.602;11.904;2022-12-18T16:24:13;5.80;67.60
64817;DHT22;53289;45.602;11.904;2022-12-18T16:26:39;5.70;67.70
64817;DHT22;53289;45.602;11.904;2022-12-18T16:29:08;5.50;67.80
64817;DHT22;53289;45.602;11.904;2022-12-18T16:31:33;5.40;68.10
64817;DHT22;53289;45.602;11.904;2022-12-18T16:34:20;5.30;68.30
64817;DHT22;53289;45.602;11.904;2022-12-18T16:36:49;5.20;68.50
64817;DHT22;53289;45.602;11.904;2022-12-18T16:39:17;5.10;68.70
64817;DHT22;53289;45.602;11.904;2022-12-18T16:41:43;5.10;69.20
64817;DHT22;53289;45.602;11.904;2022-12-18T16:44:09;4.90;69.40
64817;DHT22;53289;45.602;11.904;2022-12-18T16:46:36;4.90;69.80
64817;DHT22;53289;45.602;11.904;2022-12-18T16:49:02;4.80;69.80
64817;DHT22;53289;45.602;11.904;2022-12-18T16:51:29;4.70;69.90
64817;DHT22;53289;45.602;11.904;2022-12-18T16:53:55;4.60;70.00
64817;DHT22;53289;45.602;11.904;2022-12-18T16:56:21;4.50;70.20
64817;DHT22;53289;45.602;11.904;2022-12-18T16:58:55;4.50;70.40
64817;DHT22;53289;45.602;11.904;2022-12-18T17:01:21;4.40;70.50
64817;DHT22;53289;45.602;11.904;2022-12-18T17:03:57;4.30;70.90
64817;DHT22;53289;45.602;11.904;2022-12-18T17:06:24;4.20;70.80
64817;DHT22;53289;45.602;11.904;2022-12-18T17:08:57;4.10;71.20
64817;DHT22;53289;45.602;11.904;2022-12-18T17:11:25;4.00;71.10
64817;DHT22;53289;45.602;11.904;2022-12-18T17:13:52;3.90;71.20
64817;DHT22;53289;45.602;11.904;2022-12-18T17:16:18;3.80;71.40
64817;DHT22;53289;45.602;11.904;2022-12-18T17:18:44;3.70;71.60
64817;DHT22;53289;45.602;11.904;2022-12-18T17:21:11;3.70;71.40
64817;DHT22;53289;45.602;11.904;2022-12-18T17:23:42;3.60;71.60
64817;DHT22;53289;45.602;11.904;2022-12-18T17:26:10;3.60;71.80
64817;DHT22;53289;45.602;11.904;2022-12-18T17:28:37;3.60;72.20
64817;DHT22;53289;45.602;11.904;2022-12-18T17:31:16;3.50;72.40
64817;DHT22;53289;45.602;11.904;2022-12-18T17:33:43;3.40;72.20
64817;DHT22;53289;45.602;11.904;2022-12-18T17:36:09;3.40;72.30
64817;DHT22;53289;45.602;11.904;2022-12-18T17:38:36;3.30;72.30
64817;DHT22;53289;45.602;11.904;2022-12-18T17:41:04;3.10;72.50
64817;DHT22;53289;45.602;11.904;2022-12-18T17:43:31;3.10;72.60
64817;DHT22;53289;45.602;11.904;2022-12-18T17:46:06;2.90;72.70
64817;DHT22;53289;45.602;11.904;2022-12-18T17:48:32;2.90;72.90
64817;DHT22;53289;45.602;11.904;2022-12-18T17:51:02;2.80;72.90
64817;DHT22;53289;45.602;11.904;2022-12-18T17:53:28;2.70;73.00